sensor_id;sensor_type;location;lat;lon;timestamp;pressure;altitude;pressure_sealevel;temperature;humidity
71889;BME280;59762;49.998;14.858;2023-04-01T00:00:47;95808.06;;;7.57;100.00
71889;BME280;59762;49.998;14.858;2023-04-01T00:03:15;95803.69;;;7.64;100.00
71889;BME280;59762;49.998;14.858;2023-04-01T00:05:42;95807.81;;;7.67;99.58
71889;BME280;59762;49.998;14.858;2023-04-01T00:08:07;95813.47;;;7.64;100.00
71889;BME280;59762;49.998;14.858;2023-04-01T00:10:33;95804.09;;;7.53;100.00
71889;BME280;59762;49.998;14.858;2023-04-01T00:12:58;95808.16;;;7.64;100.00
71889;BME280;59762;49.998;14.858;2023-04-01T00:15:24;95815.13;;;7.65;100.00
71889;BME280;59762;49.998;14.858;2023-04-01T00:17:50;95815.50;;;7.62;100.00
71889;BME280;59762;49.998;14.858;2023-04-01T00:20:16;95813.72;;;7.54;100.00
71889;BME280;59762;49.998;14.858;2023-04-01T00:22:41;95815.63;;;7.46;100.00
71889;BME280;59762;49.998;14.858;2023-04-01T00:25:07;95820.81;;;7.39;100.00
71889;BME280;59762;49.998;14.858;2023-04-01T00:27:33;95814.44;;;7.26;100.00
71889;BME280;59762;49.998;14.858;2023-04-01T00:29:59;95815.63;;;7.23;100.00
71889;BME280;59762;49.998;14.858;2023-04-01T00:32:25;95807.66;;;7.23;100.00
71889;BME280;59762;49.998;14.858;2023-04-01T00:34:52;95809.84;;;7.20;100.00
71889;BME280;59762;49.998;14.858;2023-04-01T00:37:19;95807.34;;;7.18;100.00
71889;BME280;59762;49.998;14.858;2023-04-01T00:39:45;95802.22;;;7.17;100.00
71889;BME280;59762;49.998;14.858;2023-04-01T00:42:11;95804.53;;;7.20;100.00
71889;BME280;59762;49.998;14.858;2023-04-01T00:44:38;95804.19;;;7.23;100.00
71889;BME280;59762;49.998;14.858;2023-04-01T00:47:04;95804.47;;;7.28;100.00
71889;BME280;59762;49.998;14.858;2023-04-01T00:49:39;95809.13;;;7.26;100.00
71889;BME280;59762;49.998;14.858;2023-04-01T00:52:07;95799.97;;;7.28;100.00
71889;BME280;59762;49.998;14.858;2023-04-01T00:54:34;95807.13;;;7.28;100.00
71889;BME280;59762;49.998;14.858;2023-04-01T00:57:12;95808.22;;;7.33;100.00
71889;BME280;59762;49.998;14.858;2023-04-01T00:59:43;95804.31;;;7.29;100.00
71889;BME280;59762;49.998;14.858;2023-04-01T01:02:11;95804.59;;;7.34;100.00
71889;BME280;59762;49.998;14.858;2023-04-01T01:04:38;95799.91;;;7.36;100.00
71889;BME280;59762;49.998;14.858;2023-04-01T01:07:47;95805.69;;;7.40;100.00
71889;BME280;59762;49.998;14.858;2023-04-01T01:10:31;95805.41;;;7.35;100.00
71889;BME280;59762;49.998;14.858;2023-04-01T01:13:10;95810.31;;;7.46;100.00
71889;BME280;59762;49.998;14.858;2023-04-01T01:15:52;95802.41;;;7.38;100.00
71889;BME280;59762;49.998;14.858;2023-04-01T01:27:41;95793.44;;;7.39;100.00
71889;BME280;59762;49.998;14.858;2023-04-01T01:35:38;95794.44;;;7.38;100.00
71889;BME280;59762;49.998;14.858;2023-04-01T01:38:11;95794.59;;;7.36;100.00
71889;BME280;59762;49.998;14.858;2023-04-01T01:40:41;95791.44;;;7.41;100.00
71889;BME280;59762;49.998;14.858;2023-04-01T01:43:10;95787.66;;;7.35;100.00
71889;BME280;59762;49.998;14.858;2023-04-01T01:45:42;95794.78;;;7.35;100.00
71889;BME280;59762;49.998;14.858;2023-04-01T01:48:11;95785.47;;;7.39;100.00
71889;BME280;59762;49.998;14.858;2023-04-01T01:50:37;95788.41;;;7.44;100.00
71889;BME280;59762;49.998;14.858;2023-04-01T01:53:09;95792.25;;;7.41;100.00
71889;BME280;59762;49.998;14.858;2023-04-01T01:55:37;95787.09;;;7.40;100.00
71889;BME280;59762;49.998;14.858;2023-04-01T01:58:15;95790.72;;;7.47;100.00
71889;BME280;59762;49.998;14.858;2023-04-01T02:00:45;95788.72;;;7.49;100.00
71889;BME280;59762;49.998;14.858;2023-04-01T02:03:13;95786.69;;;7.51;100.00
71889;BME280;59762;49.998;14.858;2023-04-01T02:05:40;95785.41;;;7.47;100.00
71889;BME280;59762;49.998;14.858;2023-04-01T02:08:13;95784.03;;;7.51;100.00
71889;BME280;59762;49.998;14.858;2023-04-01T02:10:44;95795.00;;;7.48;100.00
71889;BME280;59762;49.998;14.858;2023-04-01T02:13:34;95791.91;;;7.44;100.00
71889;BME280;59762;49.998;14.858;2023-04-01T02:16:06;95793.53;;;7.45;100.00
71889;BME280;59762;49.998;14.858;2023-04-01T02:18:36;95789.34;;;7.51;100.00
71889;BME280;59762;49.998;14.858;2023-04-01T02:21:04;95789.19;;;7.52;100.00
71889;BME280;59762;49.998;14.858;2023-04-01T02:23:35;95796.56;;;7.42;100.00
71889;BME280;59762;49.998;14.858;2023-04-01T02:26:05;95801.69;;;7.44;100.00
71889;BME280;59762;49.998;14.858;2023-04-01T02:28:33;95816.03;;;7.35;100.00
71889;BME280;59762;49.998;14.858;2023-04-01T02:31:00;95816.03;;;7.35;100.00
71889;BME280;59762;49.998;14.858;2023-04-01T02:33:28;95801.66;;;7.29;100.00
71889;BME280;59762;49.998;14.858;2023-04-01T02:35:54;95819.91;;;7.24;100.00
71889;BME280;59762;49.998;14.858;2023-04-01T02:38:20;95821.03;;;7.30;100.00
71889;BME280;59762;49.998;14.858;2023-04-01T02:40:51;95819.91;;;7.24;100.00
71889;BME280;59762;49.998;14.858;2023-04-01T02:43:21;95831.88;;;7.20;100.00
71889;BME280;59762;49.998;14.858;2023-04-01T02:45:47;95827.75;;;7.18;100.00
71889;BME280;59762;49.998;14.858;2023-04-01T02:48:13;95830.25;;;7.19;100.00
71889;BME280;59762;49.998;14.858;2023-04-01T02:50:39;95831.75;;;7.14;100.00
71889;BME280;59762;49.998;14.858;2023-04-01T02:53:06;95830.06;;;7.21;100.00
71889;BME280;59762;49.998;14.858;2023-04-01T02:55:32;95837.19;;;7.20;100.00
71889;BME280;59762;49.998;14.858;2023-04-01T02:57:59;95837.69;;;7.24;100.00
71889;BME280;59762;49.998;14.858;2023-04-01T03:00:25;95842.16;;;7.23;100.00
71889;BME280;59762;49.998;14.858;2023-04-01T03:02:52;95835.38;;;7.21;100.00
71889;BME280;59762;49.998;14.858;2023-04-01T03:05:18;95847.34;;;7.17;100.00
71889;BME280;59762;49.998;14.858;2023-04-01T03:07:44;95846.88;;;7.13;100.00
71889;BME280;59762;49.998;14.858;2023-04-01T03:10:10;95849.47;;;7.21;100.00
71889;BME280;59762;49.998;14.858;2023-04-01T03:12:36;95851.59;;;7.26;100.00
71889;BME280;59762;49.998;14.858;2023-04-01T03:15:01;95848.94;;;7.26;100.00
71889;BME280;59762;49.998;14.858;2023-04-01T03:17:27;95848.78;;;7.27;100.00
71889;BME280;59762;49.998;14.858;2023-04-01T03:19:53;95850.41;;;7.28;100.00
71889;BME280;59762;49.998;14.858;2023-04-01T03:22:19;95858.03;;;7.31;100.00
71889;BME280;59762;49.998;14.858;2023-04-01T03:24:47;95851.97;;;7.23;100.00
71889;BME280;59762;49.998;14.858;2023-04-01T03:27:13;95854.63;;;7.23;100.00
71889;BME280;59762;49.998;14.858;2023-04-01T03:29:38;95856.91;;;7.26;100.00
71889;BME280;59762;49.998;14.858;2023-04-01T03:32:04;95857.28;;;7.23;100.00
71889;BME280;59762;49.998;14.858;2023-04-01T03:34:30;95858.75;;;7.25;100.00
71889;BME280;59762;49.998;14.858;2023-04-01T03:36:56;95861.56;;;7.24;100.00
71889;BME280;59762;49.998;14.858;2023-04-01T03:39:22;95869.38;;;7.25;100.00
71889;BME280;59762;49.998;14.858;2023-04-01T03:41:48;95856.44;;;7.22;100.00
71889;BME280;59762;49.998;14.858;2023-04-01T03:44:14;95856.72;;;7.27;100.00
71889;BME280;59762;49.998;14.858;2023-04-01T03:46:40;95862.38;;;7.24;100.00
71889;BME280;59762;49.998;14.858;2023-04-01T03:49:07;95863.84;;;7.27;100.00
71889;BME280;59762;49.998;14.858;2023-04-01T03:51:41;95866.47;;;7.35;100.00
71889;BME280;59762;49.998;14.858;2023-04-01T03:54:08;95863.69;;;7.28;100.00
71889;BME280;59762;49.998;14.858;2023-04-01T03:56:34;95867.31;;;7.35;100.00
71889;BME280;59762;49.998;14.858;2023-04-01T03:59:04;95871.78;;;7.35;100.00
71889;BME280;59762;49.998;14.858;2023-04-01T04:01:30;95868.44;;;7.41;100.00
71889;BME280;59762;49.998;14.858;2023-04-01T04:03:56;95876.22;;;7.42;100.00
71889;BME280;59762;49.998;14.858;2023-04-01T04:06:23;95873.38;;;7.44;100.00
71889;BME280;59762;49.998;14.858;2023-04-01T04:08:49;95877.72;;;7.45;100.00
71889;BME280;59762;49.998;14.858;2023-04-01T04:11:16;95875.69;;;7.47;100.00
71889;BME280;59762;49.998;14.858;2023-04-01T04:13:42;95870.50;;;7.53;100.00
71889;BME280;59762;49.998;14.858;2023-04-01T04:16:08;95880.22;;;7.61;100.00
71889;BME280;59762;49.998;14.858;2023-04-01T04:18:36;95875.47;;;7.56;100.00
71889;BME280;59762;49.998;14.858;2023-04-01T04:21:02;95877.47;;;7.54;100.00
71889;BME280;59762;49.998;14.858;2023-04-01T04:23:28;95874.97;;;7.53;100.00
71889;BME280;59762;49.998;14.858;2023-04-01T04:25:58;95878.81;;;7.50;100.00
71889;BME280;59762;49.998;14.858;2023-04-01T04:28:25;95880.66;;;7.50;100.00
71889;BME280;59762;49.998;14.858;2023-04-01T04:30:52;95880.09;;;7.54;100.00
71889;BME280;59762;49.998;14.858;2023-04-01T04:33:18;95885.69;;;7.45;100.00
71889;BME280;59762;49.998;14.858;2023-04-01T04:35:43;95880.00;;;7.48;100.00
71889;BME280;59762;49.998;14.858;2023-04-01T04:38:09;95887.78;;;7.49;100.00
71889;BME280;59762;49.998;14.858;2023-04-01T04:40:39;95888.78;;;7.48;100.00
71889;BME280;59762;49.998;14.858;2023-04-01T04:43:05;95884.31;;;7.49;100.00
71889;BME280;59762;49.998;14.858;2023-04-01T04:45:31;95884.78;;;7.52;100.00
71889;BME280;59762;49.998;14.858;2023-04-01T04:47:57;95891.09;;;7.51;100.00
71889;BME280;59762;49.998;14.858;2023-04-01T04:50:23;95892.75;;;7.52;100.00
71889;BME280;59762;49.998;14.858;2023-04-01T04:52:50;95886.47;;;7.45;100.00
71889;BME280;59762;49.998;14.858;2023-04-01T04:55:16;95891.91;;;7.52;100.00
71889;BME280;59762;49.998;14.858;2023-04-01T04:57:42;95884.25;;;7.57;100.00
71889;BME280;59762;49.998;14.858;2023-04-01T05:00:08;95893.22;;;7.56;100.00
71889;BME280;59762;49.998;14.858;2023-04-01T05:02:35;95879.81;;;7.49;100.00
71889;BME280;59762;49.998;14.858;2023-04-01T05:05:01;95883.78;;;7.53;100.00
71889;BME280;59762;49.998;14.858;2023-04-01T05:07:27;95889.44;;;7.50;100.00
71889;BME280;59762;49.998;14.858;2023-04-01T05:09:52;95887.09;;;7.55;100.00
71889;BME280;59762;49.998;14.858;2023-04-01T05:12:18;95888.44;;;7.51;100.00
71889;BME280;59762;49.998;14.858;2023-04-01T05:14:44;95896.72;;;7.56;100.00
71889;BME280;59762;49.998;14.858;2023-04-01T05:17:11;95889.03;;;7.61;100.00
71889;BME280;59762;49.998;14.858;2023-04-01T05:19:37;95905.09;;;7.68;98.45
71889;BME280;59762;49.998;14.858;2023-04-01T05:22:04;95895.66;;;7.65;99.71
71889;BME280;59762;49.998;14.858;2023-04-01T05:24:30;95898.00;;;7.60;100.00
71889;BME280;59762;49.998;14.858;2023-04-01T05:26:56;95901.78;;;7.66;100.00
71889;BME280;59762;49.998;14.858;2023-04-01T05:29:24;95898.66;;;7.62;100.00
71889;BME280;59762;49.998;14.858;2023-04-01T05:31:49;95893.16;;;7.64;100.00
71889;BME280;59762;49.998;14.858;2023-04-01T05:34:15;95903.91;;;7.70;100.00
71889;BME280;59762;49.998;14.858;2023-04-01T05:36:42;95899.13;;;7.66;100.00
71889;BME280;59762;49.998;14.858;2023-04-01T05:39:08;95899.00;;;7.82;97.74
71889;BME280;59762;49.998;14.858;2023-04-01T05:41:37;95904.03;;;7.77;96.56
71889;BME280;59762;49.998;14.858;2023-04-01T05:44:04;95896.00;;;7.85;96.10
71889;BME280;59762;49.998;14.858;2023-04-01T05:46:31;95895.44;;;7.89;94.93
71889;BME280;59762;49.998;14.858;2023-04-01T05:48:57;95894.09;;;7.93;94.82
71889;BME280;59762;49.998;14.858;2023-04-01T05:51:23;95900.19;;;8.02;94.52
71889;BME280;59762;49.998;14.858;2023-04-01T05:53:48;95897.81;;;8.07;91.63
71889;BME280;59762;49.998;14.858;2023-04-01T05:56:14;95898.25;;;8.10;91.41
71889;BME280;59762;49.998;14.858;2023-04-01T05:58:40;95904.75;;;8.08;92.90
71889;BME280;59762;49.998;14.858;2023-04-01T06:01:07;95904.88;;;8.14;92.25
71889;BME280;59762;49.998;14.858;2023-04-01T06:03:35;95910.09;;;8.08;95.21
71889;BME280;59762;49.998;14.858;2023-04-01T06:06:00;95900.41;;;8.15;90.44
71889;BME280;59762;49.998;14.858;2023-04-01T06:08:32;95914.28;;;8.25;90.98
71889;BME280;59762;49.998;14.858;2023-04-01T06:16:31;95903.03;;;8.52;87.55
71889;BME280;59762;49.998;14.858;2023-04-01T06:19:00;95916.91;;;8.48;86.85
71889;BME280;59762;49.998;14.858;2023-04-01T06:21:41;95916.41;;;8.44;86.86
71889;BME280;59762;49.998;14.858;2023-04-01T06:27:07;95916.81;;;8.56;86.56
71889;BME280;59762;49.998;14.858;2023-04-01T06:32:37;95926.28;;;8.58;86.02
71889;BME280;59762;49.998;14.858;2023-04-01T06:46:21;95919.38;;;8.64;82.46
71889;BME280;59762;49.998;14.858;2023-04-01T06:49:11;95921.78;;;8.73;80.73
71889;BME280;59762;49.998;14.858;2023-04-01T06:51:48;95921.50;;;8.68;81.50
71889;BME280;59762;49.998;14.858;2023-04-01T06:54:21;95922.06;;;8.78;82.08
71889;BME280;59762;49.998;14.858;2023-04-01T06:56:54;95914.81;;;8.72;81.54
71889;BME280;59762;49.998;14.858;2023-04-01T06:59:26;95918.19;;;8.81;81.32
71889;BME280;59762;49.998;14.858;2023-04-01T07:01:57;95928.66;;;8.82;80.88
71889;BME280;59762;49.998;14.858;2023-04-01T07:04:28;95932.88;;;8.91;80.83
71889;BME280;59762;49.998;14.858;2023-04-01T07:07:11;95931.88;;;9.07;81.03
71889;BME280;59762;49.998;14.858;2023-04-01T07:09:41;95938.38;;;9.04;79.61
71889;BME280;59762;49.998;14.858;2023-04-01T07:15:22;95931.75;;;9.29;78.10
71889;BME280;59762;49.998;14.858;2023-04-01T07:18:04;95927.19;;;9.23;77.82
71889;BME280;59762;49.998;14.858;2023-04-01T07:20:33;95932.50;;;9.23;76.78
71889;BME280;59762;49.998;14.858;2023-04-01T07:23:03;95938.66;;;9.24;77.90
71889;BME280;59762;49.998;14.858;2023-04-01T07:25:36;95941.88;;;9.19;77.83
71889;BME280;59762;49.998;14.858;2023-04-01T07:28:11;95939.31;;;9.26;77.42
71889;BME280;59762;49.998;14.858;2023-04-01T07:33:56;95948.34;;;9.31;77.02
71889;BME280;59762;49.998;14.858;2023-04-01T07:36:30;95943.31;;;9.36;76.75
71889;BME280;59762;49.998;14.858;2023-04-01T07:39:08;95951.41;;;9.28;78.14
71889;BME280;59762;49.998;14.858;2023-04-01T07:41:51;95955.53;;;9.31;79.48
71889;BME280;59762;49.998;14.858;2023-04-01T07:47:31;95964.91;;;9.27;79.64
71889;BME280;59762;49.998;14.858;2023-04-01T07:50:28;95963.38;;;9.18;80.98
71889;BME280;59762;49.998;14.858;2023-04-01T08:09:48;95988.22;;;8.81;88.00
71889;BME280;59762;49.998;14.858;2023-04-01T08:12:48;95987.06;;;9.27;86.48
71889;BME280;59762;49.998;14.858;2023-04-01T08:15:26;95989.16;;;9.32;84.44
71889;BME280;59762;49.998;14.858;2023-04-01T08:20:47;95984.75;;;9.74;80.36
71889;BME280;59762;49.998;14.858;2023-04-01T08:23:17;95993.78;;;9.73;79.11
71889;BME280;59762;49.998;14.858;2023-04-01T08:28:38;95984.44;;;9.98;77.76
71889;BME280;59762;49.998;14.858;2023-04-01T08:31:12;95985.16;;;9.71;77.23
71889;BME280;59762;49.998;14.858;2023-04-01T08:33:40;95990.59;;;9.63;76.89
71889;BME280;59762;49.998;14.858;2023-04-01T08:38:40;95988.34;;;9.81;77.79
71889;BME280;59762;49.998;14.858;2023-04-01T08:44:09;95992.47;;;9.84;77.91
71889;BME280;59762;49.998;14.858;2023-04-01T08:55:04;95977.28;;;10.41;73.08
71889;BME280;59762;49.998;14.858;2023-04-01T08:57:45;95981.34;;;10.16;72.53
71889;BME280;59762;49.998;14.858;2023-04-01T09:00:40;95979.28;;;9.97;70.78
71889;BME280;59762;49.998;14.858;2023-04-01T09:03:58;95979.88;;;10.34;72.27
71889;BME280;59762;49.998;14.858;2023-04-01T09:06:25;95974.31;;;10.78;72.49
71889;BME280;59762;49.998;14.858;2023-04-01T09:15:01;95980.34;;;10.65;69.72
71889;BME280;59762;49.998;14.858;2023-04-01T09:28:48;95973.50;;;11.11;70.54
71889;BME280;59762;49.998;14.858;2023-04-01T09:31:34;95974.97;;;11.14;68.81
71889;BME280;59762;49.998;14.858;2023-04-01T09:36:46;95979.34;;;11.28;68.77
71889;BME280;59762;49.998;14.858;2023-04-01T09:44:36;95987.72;;;11.12;67.16
71889;BME280;59762;49.998;14.858;2023-04-01T09:53:11;95983.53;;;11.77;65.78
71889;BME280;59762;49.998;14.858;2023-04-01T10:04:49;95985.69;;;11.54;65.68
71889;BME280;59762;49.998;14.858;2023-04-01T10:13:47;95991.22;;;11.53;67.39
71889;BME280;59762;49.998;14.858;2023-04-01T10:16:22;95991.78;;;11.48;67.58
71889;BME280;59762;49.998;14.858;2023-04-01T10:39:08;95972.53;;;11.59;63.98
71889;BME280;59762;49.998;14.858;2023-04-01T10:53:31;95968.59;;;12.02;62.78
71889;BME280;59762;49.998;14.858;2023-04-01T11:05:19;95966.97;;;12.08;62.10
71889;BME280;59762;49.998;14.858;2023-04-01T11:10:41;95972.16;;;12.22;62.42
71889;BME280;59762;49.998;14.858;2023-04-01T11:13:33;95967.94;;;11.94;62.85
71889;BME280;59762;49.998;14.858;2023-04-01T11:22:30;95970.72;;;12.91;58.71
71889;BME280;59762;49.998;14.858;2023-04-01T11:43:37;95976.72;;;12.48;60.36
71889;BME280;59762;49.998;14.858;2023-04-01T11:46:23;95973.84;;;12.69;60.89
71889;BME280;59762;49.998;14.858;2023-04-01T11:57:30;95980.34;;;12.01;61.58
71889;BME280;59762;49.998;14.858;2023-04-01T12:16:54;95991.00;;;11.88;61.03
71889;BME280;59762;49.998;14.858;2023-04-01T12:22:34;96005.16;;;11.82;61.89
71889;BME280;59762;49.998;14.858;2023-04-01T12:25:14;95993.66;;;11.88;61.28
71889;BME280;59762;49.998;14.858;2023-04-01T12:31:18;96001.00;;;12.33;59.62
71889;BME280;59762;49.998;14.858;2023-04-01T12:33:51;96001.22;;;12.45;60.52
71889;BME280;59762;49.998;14.858;2023-04-01T12:55:37;95995.22;;;12.23;60.31
71889;BME280;59762;49.998;14.858;2023-04-01T13:01:03;95997.69;;;12.31;60.06
71889;BME280;59762;49.998;14.858;2023-04-01T13:15:36;96001.66;;;12.68;59.66
71889;BME280;59762;49.998;14.858;2023-04-01T13:28:33;95999.59;;;12.83;57.84
71889;BME280;59762;49.998;14.858;2023-04-01T13:34:06;95996.75;;;13.10;57.47
71889;BME280;59762;49.998;14.858;2023-04-01T13:36:58;95994.06;;;13.10;57.91
71889;BME280;59762;49.998;14.858;2023-04-01T13:39:41;95999.63;;;13.02;58.63
71889;BME280;59762;49.998;14.858;2023-04-01T13:43:01;96000.00;;;12.60;59.27
71889;BME280;59762;49.998;14.858;2023-04-01T13:45:50;95998.41;;;11.99;60.82
71889;BME280;59762;49.998;14.858;2023-04-01T13:49:02;96005.19;;;11.89;62.52
71889;BME280;59762;49.998;14.858;2023-04-01T13:51:55;95998.75;;;11.70;62.20
71889;BME280;59762;49.998;14.858;2023-04-01T14:00:31;96003.47;;;12.41;60.22
71889;BME280;59762;49.998;14.858;2023-04-01T14:03:14;96003.22;;;12.17;61.05
71889;BME280;59762;49.998;14.858;2023-04-01T14:06:02;96006.38;;;12.66;58.76
71889;BME280;59762;49.998;14.858;2023-04-01T14:08:42;96008.19;;;12.33;59.52
71889;BME280;59762;49.998;14.858;2023-04-01T14:20:17;96007.03;;;12.61;58.79
71889;BME280;59762;49.998;14.858;2023-04-01T14:39:47;96005.06;;;12.23;59.09
71889;BME280;59762;49.998;14.858;2023-04-01T14:42:45;96012.50;;;12.27;58.97
71889;BME280;59762;49.998;14.858;2023-04-01T14:48:15;96007.81;;;12.68;57.20
71889;BME280;59762;49.998;14.858;2023-04-01T14:50:45;96011.09;;;12.31;58.34
71889;BME280;59762;49.998;14.858;2023-04-01T14:55:52;96014.34;;;12.27;60.35
71889;BME280;59762;49.998;14.858;2023-04-01T14:58:21;96012.97;;;12.63;59.01
71889;BME280;59762;49.998;14.858;2023-04-01T15:09:25;96039.34;;;12.53;61.89
71889;BME280;59762;49.998;14.858;2023-04-01T15:12:23;96035.53;;;12.15;65.14
71889;BME280;59762;49.998;14.858;2023-04-01T15:15:14;96030.28;;;11.88;66.45
71889;BME280;59762;49.998;14.858;2023-04-01T15:23:27;96035.06;;;11.99;65.34
71889;BME280;59762;49.998;14.858;2023-04-01T15:26:22;96032.66;;;11.70;66.06
71889;BME280;59762;49.998;14.858;2023-04-01T15:34:37;96036.47;;;11.54;65.23
71889;BME280;59762;49.998;14.858;2023-04-01T15:45:31;96042.06;;;11.32;67.25
71889;BME280;59762;49.998;14.858;2023-04-01T15:59:53;96061.47;;;11.13;67.98
71889;BME280;59762;49.998;14.858;2023-04-01T16:04:54;96066.19;;;10.90;69.79
71889;BME280;59762;49.998;14.858;2023-04-01T16:12:51;96068.84;;;10.62;71.10
71889;BME280;59762;49.998;14.858;2023-04-01T16:15:44;96067.75;;;10.57;71.41
71889;BME280;59762;49.998;14.858;2023-04-01T16:21:21;96079.41;;;10.49;72.94
71889;BME280;59762;49.998;14.858;2023-04-01T16:23:57;96077.47;;;10.43;73.65
71889;BME280;59762;49.998;14.858;2023-04-01T16:26:44;96073.78;;;10.44;72.36
71889;BME280;59762;49.998;14.858;2023-04-01T16:34:48;96087.59;;;10.48;71.79
71889;BME280;59762;49.998;14.858;2023-04-01T16:37:36;96081.34;;;10.41;71.53
71889;BME280;59762;49.998;14.858;2023-04-01T16:42:53;96096.09;;;10.22;72.08
71889;BME280;59762;49.998;14.858;2023-04-01T16:48:11;96100.19;;;9.89;79.03
71889;BME280;59762;49.998;14.858;2023-04-01T16:50:52;96100.75;;;9.85;81.64
71889;BME280;59762;49.998;14.858;2023-04-01T16:53:52;96104.06;;;9.72;83.94
71889;BME280;59762;49.998;14.858;2023-04-01T16:56:38;96107.75;;;9.57;84.99
71889;BME280;59762;49.998;14.858;2023-04-01T16:59:14;96107.84;;;9.49;85.87
71889;BME280;59762;49.998;14.858;2023-04-01T17:02:07;96109.38;;;9.43;86.88
71889;BME280;59762;49.998;14.858;2023-04-01T17:13:06;96133.66;;;9.34;87.41
71889;BME280;59762;49.998;14.858;2023-04-01T17:21:00;96140.78;;;9.19;87.07
71889;BME280;59762;49.998;14.858;2023-04-01T17:26:37;96145.88;;;9.43;82.61
71889;BME280;59762;49.998;14.858;2023-04-01T17:37:20;96157.06;;;9.38;77.71
71889;BME280;59762;49.998;14.858;2023-04-01T17:42:46;96160.47;;;9.32;77.50
71889;BME280;59762;49.998;14.858;2023-04-01T17:51:04;96173.50;;;9.05;80.16
71889;BME280;59762;49.998;14.858;2023-04-01T18:07:39;96181.97;;;8.86;82.64
71889;BME280;59762;49.998;14.858;2023-04-01T18:26:20;96195.22;;;8.71;85.12
71889;BME280;59762;49.998;14.858;2023-04-01T18:31:41;96216.56;;;8.63;86.26
71889;BME280;59762;49.998;14.858;2023-04-01T18:36:48;96221.72;;;8.65;86.97
71889;BME280;59762;49.998;14.858;2023-04-01T18:39:21;96220.88;;;8.64;87.59
71889;BME280;59762;49.998;14.858;2023-04-01T18:41:55;96223.06;;;8.61;87.88
71889;BME280;59762;49.998;14.858;2023-04-01T18:47:48;96242.72;;;8.52;88.90
71889;BME280;59762;49.998;14.858;2023-04-01T18:50:22;96233.59;;;8.46;89.89
71889;BME280;59762;49.998;14.858;2023-04-01T18:53:26;96234.13;;;8.42;91.00
71889;BME280;59762;49.998;14.858;2023-04-01T18:56:03;96240.63;;;8.39;91.37
71889;BME280;59762;49.998;14.858;2023-04-01T18:58:35;96242.09;;;8.42;91.15
71889;BME280;59762;49.998;14.858;2023-04-01T19:09:46;96257.94;;;8.27;99.64
71889;BME280;59762;49.998;14.858;2023-04-01T19:20:33;96259.78;;;8.18;100.00
71889;BME280;59762;49.998;14.858;2023-04-01T19:25:55;96256.47;;;8.17;100.00
71889;BME280;59762;49.998;14.858;2023-04-01T19:31:33;96263.78;;;8.14;100.00
71889;BME280;59762;49.998;14.858;2023-04-01T19:34:18;96266.28;;;8.16;100.00
71889;BME280;59762;49.998;14.858;2023-04-01T19:36:53;96273.09;;;8.10;100.00
71889;BME280;59762;49.998;14.858;2023-04-01T19:42:33;96277.63;;;8.02;100.00
71889;BME280;59762;49.998;14.858;2023-04-01T19:50:43;96279.28;;;8.03;100.00
71889;BME280;59762;49.998;14.858;2023-04-01T19:58:41;96290.41;;;7.98;100.00
71889;BME280;59762;49.998;14.858;2023-04-01T20:01:35;96286.56;;;8.01;100.00
71889;BME280;59762;49.998;14.858;2023-04-01T20:04:25;96285.44;;;7.95;100.00
71889;BME280;59762;49.998;14.858;2023-04-01T20:10:29;96292.56;;;8.03;100.00
71889;BME280;59762;49.998;14.858;2023-04-01T20:15:36;96294.53;;;8.01;100.00
71889;BME280;59762;49.998;14.858;2023-04-01T20:18:12;96299.69;;;8.02;100.00
71889;BME280;59762;49.998;14.858;2023-04-01T20:20:40;96296.06;;;7.95;100.00
71889;BME280;59762;49.998;14.858;2023-04-01T20:23:29;96298.91;;;7.94;100.00
71889;BME280;59762;49.998;14.858;2023-04-01T20:26:05;96297.91;;;7.95;100.00
71889;BME280;59762;49.998;14.858;2023-04-01T20:31:41;96307.53;;;7.96;100.00
71889;BME280;59762;49.998;14.858;2023-04-01T20:45:10;96309.69;;;7.84;100.00
71889;BME280;59762;49.998;14.858;2023-04-01T20:53:12;96309.22;;;7.81;100.00
71889;BME280;59762;49.998;14.858;2023-04-01T20:58:33;96318.34;;;7.86;100.00
71889;BME280;59762;49.998;14.858;2023-04-01T21:11:56;96318.34;;;7.86;100.00
71889;BME280;59762;49.998;14.858;2023-04-01T21:20:56;96325.66;;;7.84;100.00
71889;BME280;59762;49.998;14.858;2023-04-01T21:26:43;96332.28;;;7.80;100.00
71889;BME280;59762;49.998;14.858;2023-04-01T21:29:19;96336.78;;;7.80;100.00
71889;BME280;59762;49.998;14.858;2023-04-01T21:34:55;96340.44;;;7.79;100.00
71889;BME280;59762;49.998;14.858;2023-04-01T21:42:54;96348.22;;;7.72;100.00
71889;BME280;59762;49.998;14.858;2023-04-01T21:51:11;96349.44;;;7.62;100.00
71889;BME280;59762;49.998;14.858;2023-04-01T21:59:29;96351.72;;;7.73;100.00
71889;BME280;59762;49.998;14.858;2023-04-01T22:02:33;96353.38;;;7.66;100.00
71889;BME280;59762;49.998;14.858;2023-04-01T22:05:08;96353.06;;;7.69;100.00
71889;BME280;59762;49.998;14.858;2023-04-01T22:07:41;96352.41;;;7.67;100.00
71889;BME280;59762;49.998;14.858;2023-04-01T22:12:55;96354.38;;;7.65;100.00
71889;BME280;59762;49.998;14.858;2023-04-01T22:18:45;96361.34;;;7.66;100.00
71889;BME280;59762;49.998;14.858;2023-04-01T22:21:13;96353.91;;;7.69;100.00
71889;BME280;59762;49.998;14.858;2023-04-01T22:23:49;96362.72;;;7.62;100.00
71889;BME280;59762;49.998;14.858;2023-04-01T22:26:30;96357.72;;;7.67;100.00
71889;BME280;59762;49.998;14.858;2023-04-01T22:31:52;96358.88;;;7.72;100.00
71889;BME280;59762;49.998;14.858;2023-04-01T22:34:37;96365.53;;;7.68;100.00
71889;BME280;59762;49.998;14.858;2023-04-01T22:42:44;96372.16;;;7.80;100.00
71889;BME280;59762;49.998;14.858;2023-04-01T22:53:36;96371.66;;;7.85;100.00
71889;BME280;59762;49.998;14.858;2023-04-01T22:56:15;96356.03;;;7.90;100.00
71889;BME280;59762;49.998;14.858;2023-04-01T22:59:21;96374.31;;;7.85;100.00
71889;BME280;59762;49.998;14.858;2023-04-01T23:01:56;96376.47;;;7.81;100.00